Terminal Aerodrome Forecast
Issued by NWS Boston, MA

Home | Current Version | Previous Version | Text Only | Print | Product List | Glossary On
Versions: 1 2 3 4 5 6 7 8 9 10 11 12 13 14 15 16 17 18 19 20 21 22 23 24 25 26 27 28 29 30 31 32
964
FTUS41 KBOX 290541
TAFORH
TAF
KORH 290541Z 2906/3006 27005KT P6SM FEW200
     FM290800 34004KT P6SM SCT070
     FM290900 01005KT 6SM BR SCT035
     FM291200 04004KT P6SM BKN015
     FM291600 06005KT P6SM BKN020
     FM291700 07006KT P6SM VCSH BKN020
     FM292100 09007KT P6SM SCT035
     FM300300 VRB03KT P6SM BKN020=

USA.gov is the U.S. government's official web portal to all federal, state and local government web resources and services.